MyMeetScores TOP 100 TOP TEAMS UPCOMING MEETS COMPLETED MEETS LATEST MEETS ADD SCORES SUPPORT SHOP
Your Top 100 Stuffed AnimalsShop@
MyMeetScores
 
Sydney Galsan, Midwest Elite Gymnastics Academy - MyMeetScores.com
Sydney Galsan
Midwest Elite Gymnastics Academy
Personal Bests
Level Vault Bars Beam Floor AA
4 9.200 8.300 9.050 9.025 35.225
5 8.900 6.800 8.775 8.550 33.025
6 9.325 8.950 9.500 9.625 36.350
7 9.575 9.475 9.600 9.675 37.275
8 9.325 9.125 9.275 9.350 36.900
9 8.750 0.000 0.000 8.725 17.475
XS 8.450 9.450 9.700 9.125 36.700
Silver 8.600 9.850 9.550 9.350 37.350
Meet Scores
Date Meet Team Session Level Division Vault Bars Beam Floor AA
2019-03-01 2019 MEGA Spring Invite Midwest Elite Gymnastics Academy All 9 All Ages 8.700 9 0.000 16T 0.000 14T 8.650 12 17.350 14
2019-02-22 Jaycie Phelps Midwest Showdown Midwest Elite Gymnastics Academy 2A 9 Senior 8.400 15 0.000 14T 0.000 13T 8.675 10 17.075 13
2019-02-08 IGI Chicago Style 2019 Midwest Elite Gymnastics Academy 39 9 331 Michigan L9 B 0.000 0.000 0.000 7.925 18 7.925 20
2019-01-25 Metroplex Challenge Midwest Elite Gymnastics Academy G04 9 Jr B 8.750 7 0.000 16 0.000 15T 8.725 12T 17.475 14
2019-01-11 St Jude Benefit Meet Midwest Elite Gymnastics Academy 2C 9 Sr A 8.450 8 0.000 8T 0.000 8T 8.450 9
2018-04-20 2018 Region 5 Levels 7/8 Championships Midwest Elite Gymnastics Academy 05B 8 Sr A2 9.325 9 9.075 19 9.150 12T 9.350 8T 36.900 8
2018-03-23 Illinois Level 7 & 8 State Competition Midwest Elite Gymnastics Academy 03 8 Sr A 8.400 22 0.000 25T 0.000 24T 0.000 24T 8.400 25
2018-03-02 MEGA Spring Meet Midwest Elite Gymnastics Academy 3 8 13+ yrs. 8.600 5 7.800 10 9.275 4 9.200 1 34.875 8
2018-02-23 Jaycie Phelps Midwest Showdown Midwest Elite Gymnastics Academy 6A 8 C 8.550 5T 8.900 5T 9.225 3 9.175 4T 35.850 4
2018-02-16 Big Classic Midwest Elite Gymnastics Academy 6A 8 Junior B 8.200 6 8.900 5 9.225 3 9.000 7 35.325 6
2018-01-31 Buckeye Classic Midwest Elite Gymnastics Academy SS3 8 C 8.225 10 9.125 5 9.000 6T 9.225 4T 35.575 4T
2018-01-26 2018 UGA Classic Midwest Elite Gymnastics Academy A5 8 Junior 8.500 11 7.250 15 8.700 8 7.650 15 32.100 15
2018-01-12 St Jude Benefit Meet Midwest Elite Gymnastics Academy 3B 8 SrA 8.600 7 8.150 12 8.725 9 9.250 4 34.725 10
2017-04-21 2017 Region 5 Levels 7 & 8 Championships Midwest Elite Gymnastics Academy 16 7 Sr B 1 9.525 10T 8.800 23T 9.050 18 9.225 14T 36.600 17T
2017-03-23 2017 Illinois Level 6, 7 State Championship Midwest Elite Gymnastics Academy 3 7 Sr A 9.450 10T 9.100 10 9.350 9T 9.250 24T 37.150 10
2017-03-03 Salto National Invitational Midwest Elite Gymnastics Academy 2A 7 11-12 yr. 9.025 12 7.800 21 8.000 22T 9.375 3T 34.200 19T
2017-02-24 Kinetic Classic Midwest Elite Gymnastics Academy 1 7 All Ages 9.100 27T 9.475 8T 9.300 8T 9.400 5T 37.275 5T
2017-02-18 2017 Great Western Invitational Women's Midwest Elite Gymnastics Academy 9 7 L7 (12+) 9.575 3 8.500 13T 9.600 4T 9.550 1T 37.225 7T
2017-01-27 Circle Of Stars Gymnastics Invitational Midwest Elite Gymnastics Academy B8 7 Jr C 9.225 11T 8.950 7 9.200 6 9.200 8T 36.575 8
2017-01-20 2017 Bravo Classic Midwest Elite Gymnastics Academy 11A 7 12+yrs 9.550 6T 9.100 11T 8.875 18T 9.675 1 37.200 4
2017-01-05 Leenda's Island Adventure Midwest Elite Gymnastics Academy G03 7 12 Year Ol 9.100 10 9.000 8 9.325 5T 9.300 9T 36.725 7
2016-04-01 2016 Illinois Level 6 & 7 State Championships Midwest Elite Gymnastics Academy 06 6 L6 Jr E 8.875 25T 8.350 27 9.500 4 9.625 5 36.350 15
2016-02-20 Big Classic Midwest Elite Gymnastics Academy 9B 6 Junior B 9.000 11T 7.700 18 8.150 20 9.275 8T 34.125 18
2016-02-12 IGI Chicago Style Gymnastics Meet Midwest Elite Gymnastics Academy 521 6 SrA 8.900 11 8.800 6 9.125 9 9.350 4 36.175 4
2016-01-15 CGA Coaches Spectacular Midwest Elite Gymnastics Academy 4B 6 L6: 11A 9.000 6T 8.700 7T 9.225 5T 9.100 6 36.025 5
2016-01-08 St Jude Benefit Meet Midwest Elite Gymnastics Academy 8B 6 Junior 8.825 4 8.950 3 9.250 5T 9.200 8T 36.225 4
2015-12-17 2015 Hawaiian Pineapple Classic Midwest Elite Gymnastics Academy 3A 6 Age 11 9.125 4 8.750 6 9.175 6 9.100 6 36.150 4T
2015-12-11 Justin Spring Invitational Midwest Elite Gymnastics Academy 6 Lvl 6: ALL 9.325 8 7.725 21 9.225 15 9.425 4 35.700 15
2015-09-26 Sweet Treat Meet Midwest Elite Gymnastics Academy 8 5 11 yrs. 8.900 4 6.800 16 8.775 6 8.550 5T 33.025 12
2015-03-19 2015 Illinois Level 4 State Championship Midwest Elite Gymnastics Academy All 4 Jr.D 9.175 5 8.150 25 9.025 18 8.775 23 35.125 19
2015-02-20 Midwest Open 2015 Midwest Elite Gymnastics Academy 8A 4 10 9.200 2 8.200 9 9.050 3 8.450 14 34.900 4
2015-02-13 IGI Chicago Style Gymnastics Meet Midwest Elite Gymnastics Academy 621 4 10 Yrs Old 9.125 1 8.300 17T 9.000 12 8.800 11 35.225 7
2015-01-09 Leendas Island Adventure Midwest Elite Gymnastics Academy PP1 4 10 Year Ol 9.000 1 7.200 13 8.750 6T 9.025 3 33.975 4
2014-12-12 Justin Spring Invitational Midwest Elite Gymnastics Academy 9A 4 Sr A 8.750 4 7.800 17 8.525 13 8.750 6 33.825 11
2014-04-04 2014 Illinois Level 5 and XCEL State Championship Midwest Elite Gymnastics Academy Silver Jr.B 8.600 18 9.850 1 9.550 4 9.350 4 37.350 1
2014-03-17 2014 Region 5 Xcel Regional Invite Midwest Elite Gymnastics Academy 1 XS ChB 8.250 12 8.825 12 9.375 5 9.125 5 35.575 11
2014-01-31 Wisconsin Dells Gymnastics Vacation Classic Midwest Elite Gymnastics Academy 02B XS Jr B 8.450 5 9.450 2T 9.700 1 9.100 5 36.700 1T